Airfield :
LOGIN :

Register | Disclaimer

   EN    FR    IT 

 










Legend :    VFR   Marginal VFR   IFR   Intensive IFR   Very Intensive IFR
Visi :
Ceiling :
>= 8 km
>= 3000ft
5 to 8 km
1000 to 3000 ft
1500m to 5 km
500 to 1000 ft
800 to 1500m
200 to 500 ft
< 800m
< 200 ft
Symbols :   Thunderstorms  Fog  Heavy snow  Heavy precipitations  Wind > 20 kt
SIGMETs :     Misc.  Thunderstorms  Icing  Turbulence  Mountain Waves  Volcanic Ashes






- Airport Elevation : 184 ft
- IATA code : BRU


EBBR - Bruxelles

CURRENT METAR :
  • 281250Z 20018G29KT 9999 FEW040 07/01 Q1013 NOSIG

EXPIRED METARs :
  • 281220Z 20017G28KT 9999 FEW040 07/M00 Q1014 NOSIG
  • 281150Z 20015KT CAVOK 07/00 Q1015 BECMG 19017G30KT
  • 281120Z 20013KT CAVOK 07/M00 Q1015 NOSIG
  • 281050Z 19013KT CAVOK 06/M00 Q1016 NOSIG

TAF TAF EBBR
Valid from the 28 at 12:00 until the 29 at 18:00 UTC


281109Z 2812/2918 19015KT 9999 FEW020
BECMG 2814/2816 19017G30KT SCT008 BKN013
TEMPO 2814/2821 3500 RADZ BKN008
BECMG 2823/2901 FEW015 SCT030
TEMPO 2910/2914 19020G35KT 4000 RA SHRA BKN014 SCT020CB
PROB30
TEMPO 2915/2918 4500 SHRA



MET'MAP, your aeronautical weather chart ! - Copyright ORBIFLY December 2007 - Disclaimer

ORBIFLY MET'MAP TEAM :

Programming & Development : Alexandra Zaïnal
Concept & original design : Baudouin d'Aumeries
Assistance for programming : Marc-Olivier Méhu
Technical & hardware support : Manuel Goepfert

Contact : metmap@orbifly.com




SOURCES & CREDITS :

   NOAA